sensor_id;sensor_type;location;lat;lon;timestamp;temperature;humidity
66728;DHT22;53641;44.274;19.890;2023-01-05T00:01:54;5.50;99.90
66728;DHT22;53641;44.274;19.890;2023-01-05T00:04:19;5.50;99.90
66728;DHT22;53641;44.274;19.890;2023-01-05T00:06:45;5.50;99.90
66728;DHT22;53641;44.274;19.890;2023-01-05T00:09:12;5.60;99.90
66728;DHT22;53641;44.274;19.890;2023-01-05T00:11:38;5.50;99.90
66728;DHT22;53641;44.274;19.890;2023-01-05T00:14:25;5.50;99.90
66728;DHT22;53641;44.274;19.890;2023-01-05T00:17:11;5.50;99.90
66728;DHT22;53641;44.274;19.890;2023-01-05T00:19:57;5.40;99.90
66728;DHT22;53641;44.274;19.890;2023-01-05T00:22:52;5.40;99.90
66728;DHT22;53641;44.274;19.890;2023-01-05T00:25:19;5.30;99.90
66728;DHT22;53641;44.274;19.890;2023-01-05T00:27:46;5.30;99.90
66728;DHT22;53641;44.274;19.890;2023-01-05T00:30:13;5.30;99.90
66728;DHT22;53641;44.274;19.890;2023-01-05T00:32:40;5.30;99.90
66728;DHT22;53641;44.274;19.890;2023-01-05T00:35:09;5.20;99.90
66728;DHT22;53641;44.274;19.890;2023-01-05T00:37:35;5.30;99.90
66728;DHT22;53641;44.274;19.890;2023-01-05T00:40:02;5.30;99.90
66728;DHT22;53641;44.274;19.890;2023-01-05T00:42:28;5.30;99.90
66728;DHT22;53641;44.274;19.890;2023-01-05T00:44:54;5.30;99.90
66728;DHT22;53641;44.274;19.890;2023-01-05T00:47:19;5.30;99.90
66728;DHT22;53641;44.274;19.890;2023-01-05T00:49:45;5.30;99.90
66728;DHT22;53641;44.274;19.890;2023-01-05T00:52:11;5.30;99.90
66728;DHT22;53641;44.274;19.890;2023-01-05T00:54:36;5.20;99.90
66728;DHT22;53641;44.274;19.890;2023-01-05T00:57:02;5.20;99.90
66728;DHT22;53641;44.274;19.890;2023-01-05T00:59:27;5.10;99.90
66728;DHT22;53641;44.274;19.890;2023-01-05T01:01:53;5.00;99.90
66728;DHT22;53641;44.274;19.890;2023-01-05T01:04:19;5.00;99.90
66728;DHT22;53641;44.274;19.890;2023-01-05T01:06:45;5.00;99.90
66728;DHT22;53641;44.274;19.890;2023-01-05T01:09:11;5.00;99.90
66728;DHT22;53641;44.274;19.890;2023-01-05T01:11:37;5.10;99.90
66728;DHT22;53641;44.274;19.890;2023-01-05T01:14:03;5.00;99.90
66728;DHT22;53641;44.274;19.890;2023-01-05T01:16:29;5.00;99.90
66728;DHT22;53641;44.274;19.890;2023-01-05T01:18:55;5.00;99.90
66728;DHT22;53641;44.274;19.890;2023-01-05T01:21:24;4.90;99.90
66728;DHT22;53641;44.274;19.890;2023-01-05T01:23:50;5.00;99.90
66728;DHT22;53641;44.274;19.890;2023-01-05T01:26:15;5.00;99.90
66728;DHT22;53641;44.274;19.890;2023-01-05T01:28:41;5.00;99.90
66728;DHT22;53641;44.274;19.890;2023-01-05T01:31:06;5.00;99.90
66728;DHT22;53641;44.274;19.890;2023-01-05T01:33:32;5.10;99.90
66728;DHT22;53641;44.274;19.890;2023-01-05T01:35:58;5.10;99.90
66728;DHT22;53641;44.274;19.890;2023-01-05T01:38:27;5.00;99.90
66728;DHT22;53641;44.274;19.890;2023-01-05T01:40:52;5.00;99.90
66728;DHT22;53641;44.274;19.890;2023-01-05T01:43:19;5.00;99.90
66728;DHT22;53641;44.274;19.890;2023-01-05T01:46:02;4.90;99.90
66728;DHT22;53641;44.274;19.890;2023-01-05T01:48:28;5.00;99.90
66728;DHT22;53641;44.274;19.890;2023-01-05T01:50:53;5.00;99.90
66728;DHT22;53641;44.274;19.890;2023-01-05T01:53:22;5.00;99.90
66728;DHT22;53641;44.274;19.890;2023-01-05T01:55:50;5.00;99.90
66728;DHT22;53641;44.274;19.890;2023-01-05T01:58:16;5.00;99.90
66728;DHT22;53641;44.274;19.890;2023-01-05T02:00:43;4.90;99.90
66728;DHT22;53641;44.274;19.890;2023-01-05T02:03:09;4.90;99.90
66728;DHT22;53641;44.274;19.890;2023-01-05T02:05:34;4.90;99.90
66728;DHT22;53641;44.274;19.890;2023-01-05T02:08:05;5.00;99.90
66728;DHT22;53641;44.274;19.890;2023-01-05T02:10:37;4.90;99.90
66728;DHT22;53641;44.274;19.890;2023-01-05T02:13:15;5.00;99.90
66728;DHT22;53641;44.274;19.890;2023-01-05T02:15:45;4.90;99.90
66728;DHT22;53641;44.274;19.890;2023-01-05T02:19:10;4.80;99.90
66728;DHT22;53641;44.274;19.890;2023-01-05T02:21:05;4.80;99.90
66728;DHT22;53641;44.274;19.890;2023-01-05T02:23:52;4.80;99.90
66728;DHT22;53641;44.274;19.890;2023-01-05T02:27:53;4.90;99.90
66728;DHT22;53641;44.274;19.890;2023-01-05T02:29:10;4.90;99.90
66728;DHT22;53641;44.274;19.890;2023-01-05T02:31:46;4.80;99.90
66728;DHT22;53641;44.274;19.890;2023-01-05T02:34:18;4.80;99.90
66728;DHT22;53641;44.274;19.890;2023-01-05T02:36:46;4.70;99.90
66728;DHT22;53641;44.274;19.890;2023-01-05T02:39:18;4.70;99.90
66728;DHT22;53641;44.274;19.890;2023-01-05T02:41:52;4.60;99.90
66728;DHT22;53641;44.274;19.890;2023-01-05T02:44:20;4.70;99.90
66728;DHT22;53641;44.274;19.890;2023-01-05T02:46:46;4.70;99.90
66728;DHT22;53641;44.274;19.890;2023-01-05T02:49:23;4.70;99.90
66728;DHT22;53641;44.274;19.890;2023-01-05T02:51:49;4.70;99.90
66728;DHT22;53641;44.274;19.890;2023-01-05T02:54:20;4.70;99.90
66728;DHT22;53641;44.274;19.890;2023-01-05T02:56:51;4.80;99.90
66728;DHT22;53641;44.274;19.890;2023-01-05T02:59:26;4.50;99.90
66728;DHT22;53641;44.274;19.890;2023-01-05T03:01:58;4.20;99.90
66728;DHT22;53641;44.274;19.890;2023-01-05T03:04:26;4.00;99.90
66728;DHT22;53641;44.274;19.890;2023-01-05T03:06:53;3.90;99.90
66728;DHT22;53641;44.274;19.890;2023-01-05T03:09:24;4.00;99.90
66728;DHT22;53641;44.274;19.890;2023-01-05T03:11:55;4.00;99.90
66728;DHT22;53641;44.274;19.890;2023-01-05T03:14:53;4.00;99.90
66728;DHT22;53641;44.274;19.890;2023-01-05T03:17:42;4.00;99.90
66728;DHT22;53641;44.274;19.890;2023-01-05T03:20:06;4.00;99.90
66728;DHT22;53641;44.274;19.890;2023-01-05T03:22:33;3.90;99.90
66728;DHT22;53641;44.274;19.890;2023-01-05T03:25:20;3.90;99.90
66728;DHT22;53641;44.274;19.890;2023-01-05T03:28:07;3.90;99.90
66728;DHT22;53641;44.274;19.890;2023-01-05T03:31:02;3.80;99.90
66728;DHT22;53641;44.274;19.890;2023-01-05T03:33:54;3.80;99.90
66728;DHT22;53641;44.274;19.890;2023-01-05T03:36:49;3.70;99.90
66728;DHT22;53641;44.274;19.890;2023-01-05T03:39:16;3.70;99.90
66728;DHT22;53641;44.274;19.890;2023-01-05T03:41:43;3.50;99.90
66728;DHT22;53641;44.274;19.890;2023-01-05T03:44:09;3.40;99.90
66728;DHT22;53641;44.274;19.890;2023-01-05T03:46:34;3.50;99.90
66728;DHT22;53641;44.274;19.890;2023-01-05T03:49:00;3.50;99.90
66728;DHT22;53641;44.274;19.890;2023-01-05T03:51:26;3.50;99.90
66728;DHT22;53641;44.274;19.890;2023-01-05T03:53:51;3.40;99.90
66728;DHT22;53641;44.274;19.890;2023-01-05T03:56:17;3.40;99.90
66728;DHT22;53641;44.274;19.890;2023-01-05T03:58:42;3.40;99.90
66728;DHT22;53641;44.274;19.890;2023-01-05T04:01:08;3.30;99.90
66728;DHT22;53641;44.274;19.890;2023-01-05T04:03:33;3.40;99.90
66728;DHT22;53641;44.274;19.890;2023-01-05T04:05:59;3.50;99.90
66728;DHT22;53641;44.274;19.890;2023-01-05T04:08:25;3.60;99.90
66728;DHT22;53641;44.274;19.890;2023-01-05T04:10:51;3.50;99.90
66728;DHT22;53641;44.274;19.890;2023-01-05T04:13:17;3.50;99.90
66728;DHT22;53641;44.274;19.890;2023-01-05T04:15:43;3.30;99.90
66728;DHT22;53641;44.274;19.890;2023-01-05T04:18:09;3.30;99.90
66728;DHT22;53641;44.274;19.890;2023-01-05T04:20:34;3.30;99.90
66728;DHT22;53641;44.274;19.890;2023-01-05T04:23:00;3.40;99.90
66728;DHT22;53641;44.274;19.890;2023-01-05T04:25:26;3.50;99.90
66728;DHT22;53641;44.274;19.890;2023-01-05T04:27:51;3.40;99.90
66728;DHT22;53641;44.274;19.890;2023-01-05T04:30:17;3.60;99.90
66728;DHT22;53641;44.274;19.890;2023-01-05T04:32:43;3.70;99.90
66728;DHT22;53641;44.274;19.890;2023-01-05T04:35:08;3.60;99.90
66728;DHT22;53641;44.274;19.890;2023-01-05T04:37:34;3.60;99.90
66728;DHT22;53641;44.274;19.890;2023-01-05T04:39:59;3.60;99.90
66728;DHT22;53641;44.274;19.890;2023-01-05T04:42:25;3.50;99.90
66728;DHT22;53641;44.274;19.890;2023-01-05T04:44:51;3.40;99.90
66728;DHT22;53641;44.274;19.890;2023-01-05T04:47:16;3.40;99.90
66728;DHT22;53641;44.274;19.890;2023-01-05T04:49:42;3.50;99.90
66728;DHT22;53641;44.274;19.890;2023-01-05T04:52:07;3.50;99.90
66728;DHT22;53641;44.274;19.890;2023-01-05T04:54:34;3.50;99.90
66728;DHT22;53641;44.274;19.890;2023-01-05T04:56:59;3.40;99.90
66728;DHT22;53641;44.274;19.890;2023-01-05T04:59:25;3.40;99.90
66728;DHT22;53641;44.274;19.890;2023-01-05T05:01:50;3.50;99.90
66728;DHT22;53641;44.274;19.890;2023-01-05T05:04:16;3.40;99.90
66728;DHT22;53641;44.274;19.890;2023-01-05T05:06:42;3.40;99.90
66728;DHT22;53641;44.274;19.890;2023-01-05T05:09:07;3.50;99.90
66728;DHT22;53641;44.274;19.890;2023-01-05T05:11:33;3.60;99.90
66728;DHT22;53641;44.274;19.890;2023-01-05T05:13:58;3.90;99.90
66728;DHT22;53641;44.274;19.890;2023-01-05T05:16:24;4.00;99.90
66728;DHT22;53641;44.274;19.890;2023-01-05T05:18:50;4.10;99.90
66728;DHT22;53641;44.274;19.890;2023-01-05T05:21:15;4.20;99.90
66728;DHT22;53641;44.274;19.890;2023-01-05T05:23:41;4.20;99.90
66728;DHT22;53641;44.274;19.890;2023-01-05T05:26:06;4.20;99.90
66728;DHT22;53641;44.274;19.890;2023-01-05T05:28:32;4.20;99.90
66728;DHT22;53641;44.274;19.890;2023-01-05T05:30:58;4.10;99.90
66728;DHT22;53641;44.274;19.890;2023-01-05T05:33:23;3.90;99.90
66728;DHT22;53641;44.274;19.890;2023-01-05T05:35:49;3.70;99.90
66728;DHT22;53641;44.274;19.890;2023-01-05T05:38:14;3.70;99.90
66728;DHT22;53641;44.274;19.890;2023-01-05T05:40:40;3.60;99.90
66728;DHT22;53641;44.274;19.890;2023-01-05T05:43:06;3.60;99.90
66728;DHT22;53641;44.274;19.890;2023-01-05T05:45:31;3.50;99.90
66728;DHT22;53641;44.274;19.890;2023-01-05T05:47:57;3.50;99.90
66728;DHT22;53641;44.274;19.890;2023-01-05T05:50:22;3.40;99.90
66728;DHT22;53641;44.274;19.890;2023-01-05T05:52:48;3.40;99.90
66728;DHT22;53641;44.274;19.890;2023-01-05T05:55:14;3.30;99.90
66728;DHT22;53641;44.274;19.890;2023-01-05T05:57:39;3.20;99.90
66728;DHT22;53641;44.274;19.890;2023-01-05T06:00:05;3.20;99.90
66728;DHT22;53641;44.274;19.890;2023-01-05T06:02:31;3.20;99.90
66728;DHT22;53641;44.274;19.890;2023-01-05T06:04:57;3.30;99.90
66728;DHT22;53641;44.274;19.890;2023-01-05T06:07:22;3.30;99.90
66728;DHT22;53641;44.274;19.890;2023-01-05T06:09:48;3.20;99.90
66728;DHT22;53641;44.274;19.890;2023-01-05T06:12:13;3.30;99.90
66728;DHT22;53641;44.274;19.890;2023-01-05T06:14:39;3.40;99.90
66728;DHT22;53641;44.274;19.890;2023-01-05T06:17:04;3.40;99.90
66728;DHT22;53641;44.274;19.890;2023-01-05T06:19:30;3.50;99.90
66728;DHT22;53641;44.274;19.890;2023-01-05T06:21:56;3.40;99.90
66728;DHT22;53641;44.274;19.890;2023-01-05T06:24:21;3.30;99.90
66728;DHT22;53641;44.274;19.890;2023-01-05T06:26:47;3.40;99.90
66728;DHT22;53641;44.274;19.890;2023-01-05T06:29:12;3.40;99.90
66728;DHT22;53641;44.274;19.890;2023-01-05T06:31:38;3.40;99.90
66728;DHT22;53641;44.274;19.890;2023-01-05T06:34:04;3.50;99.90
66728;DHT22;53641;44.274;19.890;2023-01-05T06:36:29;3.40;99.90
66728;DHT22;53641;44.274;19.890;2023-01-05T06:38:55;3.40;99.90
66728;DHT22;53641;44.274;19.890;2023-01-05T06:41:20;3.30;99.90
66728;DHT22;53641;44.274;19.890;2023-01-05T06:43:46;3.30;99.90
66728;DHT22;53641;44.274;19.890;2023-01-05T06:46:11;3.40;99.90
66728;DHT22;53641;44.274;19.890;2023-01-05T06:48:37;3.50;99.90
66728;DHT22;53641;44.274;19.890;2023-01-05T06:51:03;3.50;99.90
66728;DHT22;53641;44.274;19.890;2023-01-05T06:53:28;3.40;99.90
66728;DHT22;53641;44.274;19.890;2023-01-05T06:55:54;3.50;99.90
66728;DHT22;53641;44.274;19.890;2023-01-05T06:58:19;3.50;99.90
66728;DHT22;53641;44.274;19.890;2023-01-05T07:00:45;3.40;99.90
66728;DHT22;53641;44.274;19.890;2023-01-05T07:03:11;3.50;99.90
66728;DHT22;53641;44.274;19.890;2023-01-05T07:05:37;3.50;99.90
66728;DHT22;53641;44.274;19.890;2023-01-05T07:08:03;3.50;99.90
66728;DHT22;53641;44.274;19.890;2023-01-05T07:10:28;3.50;99.90
66728;DHT22;53641;44.274;19.890;2023-01-05T07:12:54;3.50;99.90
66728;DHT22;53641;44.274;19.890;2023-01-05T07:15:20;3.60;99.90
66728;DHT22;53641;44.274;19.890;2023-01-05T07:17:45;3.80;99.90
66728;DHT22;53641;44.274;19.890;2023-01-05T07:20:11;3.90;99.90
66728;DHT22;53641;44.274;19.890;2023-01-05T07:22:37;4.10;99.90
66728;DHT22;53641;44.274;19.890;2023-01-05T07:25:02;4.10;99.90
66728;DHT22;53641;44.274;19.890;2023-01-05T07:27:28;4.30;99.90
66728;DHT22;53641;44.274;19.890;2023-01-05T07:29:54;4.40;99.90
66728;DHT22;53641;44.274;19.890;2023-01-05T07:32:19;4.60;99.90
66728;DHT22;53641;44.274;19.890;2023-01-05T07:34:45;4.60;99.90
66728;DHT22;53641;44.274;19.890;2023-01-05T07:37:10;4.80;99.90
66728;DHT22;53641;44.274;19.890;2023-01-05T07:39:36;5.20;99.90
66728;DHT22;53641;44.274;19.890;2023-01-05T07:42:02;5.50;99.90
66728;DHT22;53641;44.274;19.890;2023-01-05T07:44:27;5.80;99.90
66728;DHT22;53641;44.274;19.890;2023-01-05T07:46:53;6.20;99.90
66728;DHT22;53641;44.274;19.890;2023-01-05T07:49:19;6.60;99.90
66728;DHT22;53641;44.274;19.890;2023-01-05T07:51:45;7.00;99.90
66728;DHT22;53641;44.274;19.890;2023-01-05T07:54:10;7.30;99.90
66728;DHT22;53641;44.274;19.890;2023-01-05T07:56:36;7.80;99.90
66728;DHT22;53641;44.274;19.890;2023-01-05T07:59:01;8.20;99.90
66728;DHT22;53641;44.274;19.890;2023-01-05T08:01:27;8.50;99.90
66728;DHT22;53641;44.274;19.890;2023-01-05T08:03:53;8.70;99.90
66728;DHT22;53641;44.274;19.890;2023-01-05T08:06:18;8.60;99.90
66728;DHT22;53641;44.274;19.890;2023-01-05T08:08:44;8.60;99.90
66728;DHT22;53641;44.274;19.890;2023-01-05T08:11:11;8.80;99.90
66728;DHT22;53641;44.274;19.890;2023-01-05T08:13:39;9.20;99.90
66728;DHT22;53641;44.274;19.890;2023-01-05T08:16:25;9.50;99.90
66728;DHT22;53641;44.274;19.890;2023-01-05T08:18:51;9.50;99.90
66728;DHT22;53641;44.274;19.890;2023-01-05T08:21:17;9.60;99.90
66728;DHT22;53641;44.274;19.890;2023-01-05T08:23:46;9.80;99.90
66728;DHT22;53641;44.274;19.890;2023-01-05T08:26:12;9.80;99.90
66728;DHT22;53641;44.274;19.890;2023-01-05T08:28:38;9.90;99.90
66728;DHT22;53641;44.274;19.890;2023-01-05T08:31:05;9.90;99.90
66728;DHT22;53641;44.274;19.890;2023-01-05T08:33:31;9.80;99.90
66728;DHT22;53641;44.274;19.890;2023-01-05T08:35:57;9.90;99.90
66728;DHT22;53641;44.274;19.890;2023-01-05T08:38:23;10.00;99.90
66728;DHT22;53641;44.274;19.890;2023-01-05T08:40:49;10.00;99.90
66728;DHT22;53641;44.274;19.890;2023-01-05T08:43:14;10.10;99.90
66728;DHT22;53641;44.274;19.890;2023-01-05T08:45:40;10.10;99.90
66728;DHT22;53641;44.274;19.890;2023-01-05T08:48:06;10.10;99.90
66728;DHT22;53641;44.274;19.890;2023-01-05T08:50:33;10.00;99.90
66728;DHT22;53641;44.274;19.890;2023-01-05T08:52:59;10.00;99.90
66728;DHT22;53641;44.274;19.890;2023-01-05T08:55:24;10.00;99.90
66728;DHT22;53641;44.274;19.890;2023-01-05T08:57:53;10.10;99.90
66728;DHT22;53641;44.274;19.890;2023-01-05T09:00:20;10.10;99.90
66728;DHT22;53641;44.274;19.890;2023-01-05T09:02:46;10.10;99.90
66728;DHT22;53641;44.274;19.890;2023-01-05T09:05:12;10.00;99.90
66728;DHT22;53641;44.274;19.890;2023-01-05T09:07:38;9.90;99.90
66728;DHT22;53641;44.274;19.890;2023-01-05T09:10:04;10.00;99.90
66728;DHT22;53641;44.274;19.890;2023-01-05T09:12:30;10.10;99.90
66728;DHT22;53641;44.274;19.890;2023-01-05T09:14:56;10.00;99.90
66728;DHT22;53641;44.274;19.890;2023-01-05T09:17:21;10.10;99.90
66728;DHT22;53641;44.274;19.890;2023-01-05T09:19:47;10.20;99.90
66728;DHT22;53641;44.274;19.890;2023-01-05T09:22:12;9.80;99.90
66728;DHT22;53641;44.274;19.890;2023-01-05T09:24:38;9.70;99.90
66728;DHT22;53641;44.274;19.890;2023-01-05T09:27:04;9.60;99.90
66728;DHT22;53641;44.274;19.890;2023-01-05T09:29:31;9.50;99.90
66728;DHT22;53641;44.274;19.890;2023-01-05T09:31:57;9.50;99.90
66728;DHT22;53641;44.274;19.890;2023-01-05T09:34:23;9.70;99.90
66728;DHT22;53641;44.274;19.890;2023-01-05T09:36:48;9.80;99.90
66728;DHT22;53641;44.274;19.890;2023-01-05T09:39:14;9.80;99.90
66728;DHT22;53641;44.274;19.890;2023-01-05T09:41:45;9.80;99.90
66728;DHT22;53641;44.274;19.890;2023-01-05T09:44:19;9.90;99.90
66728;DHT22;53641;44.274;19.890;2023-01-05T09:46:46;10.00;99.90
66728;DHT22;53641;44.274;19.890;2023-01-05T09:49:14;10.00;99.90
66728;DHT22;53641;44.274;19.890;2023-01-05T09:51:40;10.20;99.90
66728;DHT22;53641;44.274;19.890;2023-01-05T09:54:09;10.30;99.90
66728;DHT22;53641;44.274;19.890;2023-01-05T09:56:38;10.40;99.90
66728;DHT22;53641;44.274;19.890;2023-01-05T09:59:11;10.10;99.90
66728;DHT22;53641;44.274;19.890;2023-01-05T10:01:38;9.80;99.90
66728;DHT22;53641;44.274;19.890;2023-01-05T10:04:05;9.60;99.90
66728;DHT22;53641;44.274;19.890;2023-01-05T10:06:33;9.50;99.90
66728;DHT22;53641;44.274;19.890;2023-01-05T10:08:59;9.60;99.90
66728;DHT22;53641;44.274;19.890;2023-01-05T10:11:29;9.80;99.90
66728;DHT22;53641;44.274;19.890;2023-01-05T10:14:27;9.70;99.90
66728;DHT22;53641;44.274;19.890;2023-01-05T10:16:53;9.50;99.90
66728;DHT22;53641;44.274;19.890;2023-01-05T10:19:19;9.40;99.90
66728;DHT22;53641;44.274;19.890;2023-01-05T10:21:52;9.30;99.90
66728;DHT22;53641;44.274;19.890;2023-01-05T10:25:22;9.30;99.90
66728;DHT22;53641;44.274;19.890;2023-01-05T10:27:07;9.30;99.90
66728;DHT22;53641;44.274;19.890;2023-01-05T10:29:42;9.40;99.90
66728;DHT22;53641;44.274;19.890;2023-01-05T10:32:13;9.40;99.90
66728;DHT22;53641;44.274;19.890;2023-01-05T10:34:55;9.50;99.90
66728;DHT22;53641;44.274;19.890;2023-01-05T10:37:25;9.60;99.90
66728;DHT22;53641;44.274;19.890;2023-01-05T10:39:58;9.70;99.90
66728;DHT22;53641;44.274;19.890;2023-01-05T10:43:28;9.90;99.90
66728;DHT22;53641;44.274;19.890;2023-01-05T10:45:10;10.10;99.90
66728;DHT22;53641;44.274;19.890;2023-01-05T10:47:37;10.10;99.90
66728;DHT22;53641;44.274;19.890;2023-01-05T10:50:16;10.30;99.90
66728;DHT22;53641;44.274;19.890;2023-01-05T10:52:44;10.30;99.90
66728;DHT22;53641;44.274;19.890;2023-01-05T10:55:12;10.40;99.90
66728;DHT22;53641;44.274;19.890;2023-01-05T10:57:39;10.50;99.90
66728;DHT22;53641;44.274;19.890;2023-01-05T11:00:10;10.60;99.90
66728;DHT22;53641;44.274;19.890;2023-01-05T11:02:37;10.70;99.90
66728;DHT22;53641;44.274;19.890;2023-01-05T11:05:15;10.70;99.90
66728;DHT22;53641;44.274;19.890;2023-01-05T11:07:47;10.70;99.90
66728;DHT22;53641;44.274;19.890;2023-01-05T11:10:21;10.80;99.90
66728;DHT22;53641;44.274;19.890;2023-01-05T11:12:56;10.80;99.90
66728;DHT22;53641;44.274;19.890;2023-01-05T11:15:24;10.90;99.90
66728;DHT22;53641;44.274;19.890;2023-01-05T11:17:50;10.90;99.90
66728;DHT22;53641;44.274;19.890;2023-01-05T11:20:16;10.90;99.90
66728;DHT22;53641;44.274;19.890;2023-01-05T11:22:42;11.00;99.90
66728;DHT22;53641;44.274;19.890;2023-01-05T11:25:26;11.00;99.90
66728;DHT22;53641;44.274;19.890;2023-01-05T11:28:15;11.10;99.90
66728;DHT22;53641;44.274;19.890;2023-01-05T11:30:40;11.10;99.90
66728;DHT22;53641;44.274;19.890;2023-01-05T11:33:11;11.20;99.90
66728;DHT22;53641;44.274;19.890;2023-01-05T11:35:37;11.30;99.90
66728;DHT22;53641;44.274;19.890;2023-01-05T11:38:03;11.40;99.90
66728;DHT22;53641;44.274;19.890;2023-01-05T11:40:32;11.50;99.90
66728;DHT22;53641;44.274;19.890;2023-01-05T11:42:59;11.60;99.90
66728;DHT22;53641;44.274;19.890;2023-01-05T11:45:32;11.70;99.90
66728;DHT22;53641;44.274;19.890;2023-01-05T11:48:00;11.80;99.90
66728;DHT22;53641;44.274;19.890;2023-01-05T11:50:30;11.90;99.90
66728;DHT22;53641;44.274;19.890;2023-01-05T11:52:56;12.00;99.90
66728;DHT22;53641;44.274;19.890;2023-01-05T11:55:36;12.10;99.90
66728;DHT22;53641;44.274;19.890;2023-01-05T11:58:13;12.10;99.90
66728;DHT22;53641;44.274;19.890;2023-01-05T12:02:00;12.20;99.90
66728;DHT22;53641;44.274;19.890;2023-01-05T12:03:27;12.30;99.90
66728;DHT22;53641;44.274;19.890;2023-01-05T12:05:56;12.30;99.90
66728;DHT22;53641;44.274;19.890;2023-01-05T12:08:23;12.30;99.90
66728;DHT22;53641;44.274;19.890;2023-01-05T12:14:16;12.30;99.90
66728;DHT22;53641;44.274;19.890;2023-01-05T12:16:46;12.30;99.90
66728;DHT22;53641;44.274;19.890;2023-01-05T12:19:20;12.30;99.90
66728;DHT22;53641;44.274;19.890;2023-01-05T12:22:40;12.30;99.90
66728;DHT22;53641;44.274;19.890;2023-01-05T12:25:56;12.30;99.90
66728;DHT22;53641;44.274;19.890;2023-01-05T12:27:58;12.30;99.90
66728;DHT22;53641;44.274;19.890;2023-01-05T12:30:09;12.30;99.90
66728;DHT22;53641;44.274;19.890;2023-01-05T12:32:46;12.30;99.90
66728;DHT22;53641;44.274;19.890;2023-01-05T12:35:31;12.30;99.90
66728;DHT22;53641;44.274;19.890;2023-01-05T12:38:18;12.30;99.90
66728;DHT22;53641;44.274;19.890;2023-01-05T12:41:10;12.40;99.90
66728;DHT22;53641;44.274;19.890;2023-01-05T12:43:49;12.40;99.90
66728;DHT22;53641;44.274;19.890;2023-01-05T12:46:28;12.40;99.90
66728;DHT22;53641;44.274;19.890;2023-01-05T12:48:57;12.40;99.90
66728;DHT22;53641;44.274;19.890;2023-01-05T12:51:25;12.50;99.90
66728;DHT22;53641;44.274;19.890;2023-01-05T12:54:21;12.50;99.90
66728;DHT22;53641;44.274;19.890;2023-01-05T12:56:50;12.50;99.90
66728;DHT22;53641;44.274;19.890;2023-01-05T12:59:43;12.50;99.90
66728;DHT22;53641;44.274;19.890;2023-01-05T13:02:15;12.50;99.90
66728;DHT22;53641;44.274;19.890;2023-01-05T13:04:48;12.50;99.90
66728;DHT22;53641;44.274;19.890;2023-01-05T13:07:40;12.60;99.90
66728;DHT22;53641;44.274;19.890;2023-01-05T13:10:44;12.70;99.90
66728;DHT22;53641;44.274;19.890;2023-01-05T13:12:56;12.70;99.90
66728;DHT22;53641;44.274;19.890;2023-01-05T13:15:24;12.90;99.90
66728;DHT22;53641;44.274;19.890;2023-01-05T13:17:52;12.90;99.90
66728;DHT22;53641;44.274;19.890;2023-01-05T13:20:22;12.90;99.90
66728;DHT22;53641;44.274;19.890;2023-01-05T13:22:50;12.90;99.90
66728;DHT22;53641;44.274;19.890;2023-01-05T13:25:20;12.90;99.90
66728;DHT22;53641;44.274;19.890;2023-01-05T13:27:47;12.80;99.90
66728;DHT22;53641;44.274;19.890;2023-01-05T13:30:24;12.80;99.90
66728;DHT22;53641;44.274;19.890;2023-01-05T13:32:56;12.90;99.90
66728;DHT22;53641;44.274;19.890;2023-01-05T13:35:42;12.90;99.90
66728;DHT22;53641;44.274;19.890;2023-01-05T13:39:28;12.90;99.90
66728;DHT22;53641;44.274;19.890;2023-01-05T13:41:03;13.00;99.90
66728;DHT22;53641;44.274;19.890;2023-01-05T13:43:35;13.00;99.90
66728;DHT22;53641;44.274;19.890;2023-01-05T13:47:27;13.10;99.90
66728;DHT22;53641;44.274;19.890;2023-01-05T13:49:15;13.20;99.90
66728;DHT22;53641;44.274;19.890;2023-01-05T13:51:50;13.20;99.90
66728;DHT22;53641;44.274;19.890;2023-01-05T13:54:21;13.30;99.90
66728;DHT22;53641;44.274;19.890;2023-01-05T13:56:50;13.40;99.90
66728;DHT22;53641;44.274;19.890;2023-01-05T13:59:25;13.40;99.30
66728;DHT22;53641;44.274;19.890;2023-01-05T14:01:52;13.40;99.90
66728;DHT22;53641;44.274;19.890;2023-01-05T14:04:20;13.40;99.90
66728;DHT22;53641;44.274;19.890;2023-01-05T14:06:47;13.30;99.90
66728;DHT22;53641;44.274;19.890;2023-01-05T14:09:28;13.20;99.90
66728;DHT22;53641;44.274;19.890;2023-01-05T14:12:23;13.10;99.90
66728;DHT22;53641;44.274;19.890;2023-01-05T14:15:04;13.10;99.90
66728;DHT22;53641;44.274;19.890;2023-01-05T14:18:00;13.10;99.90
66728;DHT22;53641;44.274;19.890;2023-01-05T14:21:09;12.90;99.90
66728;DHT22;53641;44.274;19.890;2023-01-05T14:22:57;12.90;99.90
66728;DHT22;53641;44.274;19.890;2023-01-05T14:25:43;12.90;99.90
66728;DHT22;53641;44.274;19.890;2023-01-05T14:28:16;12.90;99.90
66728;DHT22;53641;44.274;19.890;2023-01-05T14:30:42;12.80;99.60
66728;DHT22;53641;44.274;19.890;2023-01-05T14:33:07;12.70;99.90
66728;DHT22;53641;44.274;19.890;2023-01-05T14:35:33;12.60;99.90
66728;DHT22;53641;44.274;19.890;2023-01-05T14:38:04;12.50;99.90
66728;DHT22;53641;44.274;19.890;2023-01-05T14:40:38;12.40;99.90
66728;DHT22;53641;44.274;19.890;2023-01-05T14:43:05;12.40;99.90
66728;DHT22;53641;44.274;19.890;2023-01-05T14:45:32;12.40;99.90
66728;DHT22;53641;44.274;19.890;2023-01-05T14:48:00;12.30;99.90
66728;DHT22;53641;44.274;19.890;2023-01-05T14:50:34;12.30;99.90
66728;DHT22;53641;44.274;19.890;2023-01-05T14:53:10;12.20;99.90
66728;DHT22;53641;44.274;19.890;2023-01-05T14:56:26;12.30;99.90
66728;DHT22;53641;44.274;19.890;2023-01-05T14:59:11;12.10;99.90
66728;DHT22;53641;44.274;19.890;2023-01-05T15:01:20;12.10;99.90
66728;DHT22;53641;44.274;19.890;2023-01-05T15:03:56;11.90;99.90
66728;DHT22;53641;44.274;19.890;2023-01-05T15:06:29;11.90;99.90
66728;DHT22;53641;44.274;19.890;2023-01-05T15:09:27;11.80;99.90
66728;DHT22;53641;44.274;19.890;2023-01-05T15:11:58;11.60;99.90
66728;DHT22;53641;44.274;19.890;2023-01-05T15:14:35;11.60;99.90
66728;DHT22;53641;44.274;19.890;2023-01-05T15:18:26;11.50;99.90
66728;DHT22;53641;44.274;19.890;2023-01-05T15:20:11;11.40;99.90
66728;DHT22;53641;44.274;19.890;2023-01-05T15:23:08;11.30;99.90
66728;DHT22;53641;44.274;19.890;2023-01-05T15:25:32;11.20;99.90
66728;DHT22;53641;44.274;19.890;2023-01-05T15:29:02;11.10;99.90
66728;DHT22;53641;44.274;19.890;2023-01-05T15:31:21;11.10;99.90
66728;DHT22;53641;44.274;19.890;2023-01-05T15:33:39;11.00;99.90
66728;DHT22;53641;44.274;19.890;2023-01-05T15:36:09;10.90;99.90
66728;DHT22;53641;44.274;19.890;2023-01-05T15:38:44;10.70;99.90
66728;DHT22;53641;44.274;19.890;2023-01-05T15:41:10;10.70;99.90
66728;DHT22;53641;44.274;19.890;2023-01-05T15:43:38;10.60;99.90
66728;DHT22;53641;44.274;19.890;2023-01-05T15:46:04;10.60;99.90
66728;DHT22;53641;44.274;19.890;2023-01-05T15:48:33;10.60;99.90